Time;durP1;ratioP1;P1;durP2;ratioP2;P2;SDS_P1;SDS_P2;PMS_P1;PMS_P2;Temp;Humidity;BMP_temperature;BMP_pressure;BME280_temperature;BME280_humidity;BME280_pressure;Samples;Min_cycle;Max_cycle;Signal;HPM_P1;HPM_P2
2022/08/23 00:01:59;;;;;;;1.95;1.30;;;22.50;82.70;;;;;;5037309;28;20028;-36
2022/08/23 00:04:31;;;;;;;1.67;1.30;;;22.50;82.80;;;;;;5046725;28;20051;-35
2022/08/23 00:06:58;;;;;;;2.10;1.30;;;22.50;82.90;;;;;;5046133;28;20029;-35
2022/08/23 00:09:25;;;;;;;2.63;1.30;;;22.40;82.90;;;;;;5047097;28;20658;-34
2022/08/23 00:12:12;;;;;;;4.53;1.48;;;22.40;83.00;;;;;;5046973;28;20055;-37
2022/08/23 00:14:41;;;;;;;5.65;1.60;;;22.40;83.30;;;;;;5045907;28;20033;-36
2022/08/23 00:17:08;;;;;;;3.80;1.60;;;22.30;83.40;;;;;;5047463;28;20029;-35
2022/08/23 00:19:34;;;;;;;2.28;1.40;;;22.30;83.50;;;;;;5045575;28;20496;-36
2022/08/23 00:22:00;;;;;;;4.32;1.60;;;22.30;83.50;;;;;;5046404;28;20033;-35
2022/08/23 00:24:26;;;;;;;3.63;2.00;;;22.30;83.70;;;;;;5046738;28;20017;-36
2022/08/23 00:26:54;;;;;;;2.65;1.23;;;22.30;83.80;;;;;;5046417;28;20346;-36
2022/08/23 00:29:21;;;;;;;2.95;1.67;;;22.30;83.90;;;;;;5047489;28;20392;-35
2022/08/23 00:31:47;;;;;;;4.45;1.80;;;22.20;84.00;;;;;;5046484;28;20049;-35
2022/08/23 00:34:13;;;;;;;2.90;1.48;;;22.20;84.10;;;;;;5046122;28;20111;-36
2022/08/23 00:36:39;;;;;;;2.22;1.40;;;22.20;84.20;;;;;;5046259;28;20131;-35
2022/08/23 00:39:05;;;;;;;3.08;1.75;;;22.20;84.30;;;;;;5046777;28;20075;-36
2022/08/23 00:41:32;;;;;;;1.80;1.27;;;22.20;84.40;;;;;;5045313;28;20111;-35
2022/08/23 00:49:35;;;;;;;3.03;1.50;;;22.10;84.80;;;;;;5045513;28;20044;-35
2022/08/23 00:52:31;;;;;;;5.60;1.83;;;22.00;84.90;;;;;;5046116;28;20116;-36
2022/08/23 00:54:57;;;;;;;2.28;1.52;;;22.00;85.20;;;;;;5024957;28;20176;-36
2022/08/23 00:57:24;;;;;;;3.78;2.10;;;22.00;85.40;;;;;;5041104;28;20153;-35
2022/08/23 00:59:49;;;;;;;2.33;1.63;;;22.00;85.70;;;;;;5045747;28;20040;-36
2022/08/23 01:02:16;;;;;;;3.45;1.70;;;21.90;85.80;;;;;;5045480;28;20016;-35
2022/08/23 01:04:48;;;;;;;4.50;2.30;;;21.90;85.90;;;;;;5045877;28;20128;-36
2022/08/23 01:07:19;;;;;;;;;;;21.90;86.00;;;;;;5046437;28;20044;-37
2022/08/23 01:09:48;;;;;;;1.98;1.42;;;21.90;86.00;;;;;;5044521;28;20336;-35
2022/08/23 01:12:19;;;;;;;2.58;1.65;;;21.80;86.00;;;;;;5045455;28;20112;-35
2022/08/23 01:15:05;;;;;;;3.72;1.80;;;21.80;86.30;;;;;;5045582;28;20033;-35
2022/08/23 01:17:54;;;;;;;2.35;1.85;;;21.80;86.70;;;;;;5044786;28;20104;-36
2022/08/23 01:20:23;;;;;;;3.88;1.92;;;21.70;86.80;;;;;;5046193;28;20287;-36
2022/08/23 01:23:01;;;;;;;2.90;1.80;;;21.70;86.90;;;;;;5044648;28;20361;-36
2022/08/23 01:25:30;;;;;;;2.70;1.85;;;21.70;86.90;;;;;;5045510;28;20099;-34
2022/08/23 01:27:56;;;;;;;4.15;1.83;;;21.70;86.90;;;;;;5045222;28;20028;-36
2022/08/23 01:30:27;;;;;;;3.30;1.98;;;21.70;87.10;;;;;;5044567;28;20112;-36
2022/08/23 01:32:55;;;;;;;3.10;1.80;;;21.70;87.30;;;;;;5043004;28;20029;-36
2022/08/23 01:35:29;;;;;;;5.05;2.20;;;21.60;87.40;;;;;;5045431;28;20021;-36
2022/08/23 01:37:55;;;;;;;4.05;2.03;;;21.60;87.70;;;;;;5044508;28;20029;-37
2022/08/23 01:40:21;;;;;;;3.33;1.80;;;21.60;87.90;;;;;;5045483;28;20044;-35
2022/08/23 01:42:48;;;;;;;2.83;1.73;;;21.50;88.00;;;;;;5044653;28;20029;-35
2022/08/23 01:45:14;;;;;;;5.03;2.15;;;21.50;88.10;;;;;;5044652;28;20029;-36
2022/08/23 01:47:40;;;;;;;4.13;2.20;;;21.50;88.30;;;;;;5044963;28;20116;-36
2022/08/23 01:50:07;;;;;;;4.47;2.08;;;21.50;88.50;;;;;;5044822;28;20388;-36
2022/08/23 01:52:35;;;;;;;2.55;1.95;;;21.40;88.70;;;;;;5043952;28;20102;-34
2022/08/23 01:55:02;;;;;;;3.50;2.10;;;21.40;88.90;;;;;;5044727;28;20021;-36
2022/08/23 01:57:28;;;;;;;2.35;2.08;;;21.40;89.10;;;;;;5044700;28;20025;-34
2022/08/23 01:59:57;;;;;;;3.58;2.15;;;21.30;89.10;;;;;;5044216;28;20453;-35
2022/08/23 02:02:24;;;;;;;3.83;2.05;;;21.30;89.20;;;;;;5045090;28;20295;-34
2022/08/23 02:04:50;;;;;;;2.42;1.73;;;21.30;89.20;;;;;;5043771;28;20157;-34
2022/08/23 02:07:16;;;;;;;4.80;1.90;;;21.30;89.10;;;;;;5044568;28;20458;-34
2022/08/23 02:09:41;;;;;;;4.15;1.70;;;21.30;89.00;;;;;;5044946;28;20040;-34
2022/08/23 02:12:07;;;;;;;3.22;1.85;;;21.30;89.00;;;;;;5044187;28;20559;-34
2022/08/23 02:14:33;;;;;;;2.40;1.75;;;21.20;88.90;;;;;;5044876;28;20399;-34
2022/08/23 02:16:59;;;;;;;4.88;1.85;;;21.30;89.00;;;;;;5045198;28;20081;-35
2022/08/23 02:19:25;;;;;;;3.90;1.90;;;21.20;89.50;;;;;;5043585;28;20060;-34
2022/08/23 02:21:50;;;;;;;3.13;1.83;;;21.20;88.90;;;;;;5044537;28;20453;-35
2022/08/23 02:24:20;;;;;;;2.53;1.77;;;21.20;89.00;;;;;;5044819;28;20381;-34
2022/08/23 02:26:49;;;;;;;1.75;1.63;;;21.20;89.00;;;;;;5043229;28;20032;-34
2022/08/23 02:29:17;;;;;;;5.20;1.98;;;21.20;89.10;;;;;;5044532;28;20032;-34
2022/08/23 02:31:45;;;;;;;4.47;2.28;;;21.10;89.10;;;;;;5044243;28;20473;-35
2022/08/23 02:34:13;;;;;;;3.45;1.90;;;21.10;89.20;;;;;;5043748;28;20033;-33
2022/08/23 02:36:39;;;;;;;4.13;1.90;;;21.10;89.30;;;;;;5044205;28;20181;-35
2022/08/23 02:39:06;;;;;;;4.45;2.75;;;21.10;89.50;;;;;;5045048;28;20472;-35
2022/08/23 02:41:33;;;;;;;2.95;1.85;;;21.10;89.60;;;;;;5043211;28;20021;-35
2022/08/23 02:43:59;;;;;;;3.90;2.20;;;21.10;89.70;;;;;;5044860;28;20028;-35
2022/08/23 02:46:25;;;;;;;5.28;2.40;;;21.10;90.00;;;;;;5044031;28;20465;-35
2022/08/23 02:48:50;;;;;;;5.20;2.25;;;21.00;90.10;;;;;;5043577;28;20025;-35
2022/08/23 02:51:17;;;;;;;3.60;2.33;;;21.00;90.20;;;;;;5044625;28;20048;-36
2022/08/23 02:53:43;;;;;;;4.38;2.30;;;21.00;90.30;;;;;;5044096;28;20033;-37
2022/08/23 02:56:09;;;;;;;3.15;2.10;;;20.90;90.30;;;;;;5043700;28;20028;-35
2022/08/23 02:58:35;;;;;;;6.40;2.35;;;21.00;90.40;;;;;;5044395;28;20045;-36
2022/08/23 03:01:00;;;;;;;3.38;2.38;;;20.90;90.40;;;;;;5043806;28;20032;-35
2022/08/23 03:03:26;;;;;;;3.08;2.33;;;21.00;90.50;;;;;;5044264;28;20029;-35
2022/08/23 03:05:52;;;;;;;3.55;2.50;;;20.90;90.50;;;;;;5044162;28;20052;-36
2022/08/23 03:08:19;;;;;;;2.42;2.20;;;20.90;90.50;;;;;;5044398;28;20065;-35
2022/08/23 03:10:47;;;;;;;5.13;2.20;;;20.90;90.50;;;;;;5044159;28;20025;-35
2022/08/23 03:13:12;;;;;;;3.75;2.40;;;20.90;90.50;;;;;;5044452;28;20053;-36
2022/08/23 03:15:39;;;;;;;3.08;2.40;;;20.90;90.60;;;;;;5043490;28;20017;-36
2022/08/23 03:18:05;;;;;;;3.28;2.33;;;20.90;90.70;;;;;;5048038;28;20079;-36
2022/08/23 03:20:31;;;;;;;5.30;2.40;;;20.90;90.70;;;;;;5048219;28;20485;-37
2022/08/23 03:22:58;;;;;;;3.92;2.80;;;20.90;90.90;;;;;;5046909;28;20120;-34
2022/08/23 03:25:24;;;;;;;5.05;2.38;;;20.80;90.90;;;;;;5047913;28;20025;-34
2022/08/23 03:27:49;;;;;;;3.90;2.58;;;20.80;91.00;;;;;;5048089;28;20021;-34
2022/08/23 03:30:15;;;;;;;3.65;2.47;;;20.70;91.00;;;;;;5047477;28;20083;-35
2022/08/23 03:32:41;;;;;;;4.75;2.42;;;20.70;91.10;;;;;;5047319;28;20024;-35
2022/08/23 03:35:07;;;;;;;3.42;2.72;;;20.70;91.20;;;;;;5047982;28;20036;-35
2022/08/23 03:37:33;;;;;;;5.05;2.80;;;20.70;91.30;;;;;;5046535;28;20052;-35
2022/08/23 03:39:58;;;;;;;4.13;2.75;;;20.60;91.40;;;;;;5048221;28;20064;-35
2022/08/23 03:42:24;;;;;;;4.18;2.83;;;20.60;91.40;;;;;;5047418;28;20112;-36
2022/08/23 03:44:50;;;;;;;5.35;3.08;;;20.60;91.50;;;;;;5046823;28;20071;-35
2022/08/23 03:47:16;;;;;;;4.60;2.70;;;20.60;91.60;;;;;;5047576;28;20445;-33
2022/08/23 03:49:41;;;;;;;4.45;2.60;;;20.60;91.60;;;;;;5046946;28;20021;-34
2022/08/23 03:52:07;;;;;;;3.20;2.78;;;20.60;91.70;;;;;;5046402;28;20031;-36
2022/08/23 03:54:33;;;;;;;6.32;2.60;;;20.50;91.70;;;;;;5047590;28;20033;-36
2022/08/23 03:57:02;;;;;;;4.20;2.60;;;20.50;91.80;;;;;;5047422;28;20521;-35
2022/08/23 03:59:29;;;;;;;4.07;2.60;;;20.50;91.90;;;;;;5046402;28;20487;-35
2022/08/23 04:01:55;;;;;;;4.13;2.50;;;20.40;91.90;;;;;;5047308;28;20056;-35
2022/08/23 04:04:21;;;;;;;5.50;2.97;;;20.40;92.00;;;;;;5047510;28;20076;-35
2022/08/23 04:06:47;;;;;;;6.13;3.10;;;20.40;92.10;;;;;;5046408;28;20082;-35
2022/08/23 04:09:14;;;;;;;4.43;2.92;;;20.40;92.20;;;;;;5047237;28;20427;-36
2022/08/23 04:11:40;;;;;;;4.25;2.88;;;20.30;92.20;;;;;;5046901;28;20071;-35
2022/08/23 04:14:06;;;;;;;3.55;3.00;;;20.30;92.30;;;;;;5046787;28;20032;-35
2022/08/23 04:16:36;;;;;;;4.55;2.83;;;20.30;92.40;;;;;;5046439;28;20460;-36
2022/08/23 04:19:14;;;;;;;4.20;2.85;;;20.30;92.40;;;;;;5045925;28;20048;-38
2022/08/23 04:21:44;;;;;;;3.88;3.08;;;20.30;92.50;;;;;;5046596;28;20500;-36
2022/08/23 04:24:10;;;;;;;4.45;3.20;;;20.20;92.50;;;;;;5046850;28;20033;-34
2022/08/23 04:26:36;;;;;;;3.83;2.88;;;20.20;92.60;;;;;;5046182;28;20021;-36
2022/08/23 04:29:02;;;;;;;4.53;2.90;;;20.20;92.70;;;;;;5045692;28;20029;-35
2022/08/23 04:31:28;;;;;;;4.40;3.03;;;20.20;92.80;;;;;;5046557;28;20575;-35
2022/08/23 04:33:55;;;;;;;7.95;3.35;;;20.20;92.80;;;;;;5045413;28;20112;-35
2022/08/23 04:36:21;;;;;;;4.45;3.17;;;20.10;92.80;;;;;;5047093;28;20017;-34
2022/08/23 04:38:47;;;;;;;4.55;3.00;;;20.10;93.20;;;;;;5046315;28;20069;-35
2022/08/23 04:43:56;;;;;;;5.03;3.17;;;20.00;93.00;;;;;;5046120;28;20108;-36
2022/08/23 04:46:22;;;;;;;3.63;3.17;;;20.00;93.10;;;;;;5046618;28;20036;-36
2022/08/23 04:48:48;;;;;;;5.25;2.88;;;20.00;93.10;;;;;;5045673;28;20025;-36
2022/08/23 04:51:14;;;;;;;3.88;2.80;;;20.00;93.10;;;;;;5046187;28;20103;-35
2022/08/23 04:53:40;;;;;;;4.18;2.83;;;20.00;93.10;;;;;;5045903;28;20269;-35
2022/08/23 04:56:07;;;;;;;3.67;2.67;;;20.00;93.20;;;;;;5045452;28;20385;-36
2022/08/23 04:58:35;;;;;;;3.70;2.83;;;20.00;93.20;;;;;;5045549;28;20037;-33
2022/08/23 05:01:04;;;;;;;4.20;2.90;;;20.00;93.30;;;;;;5045364;28;20021;-35
2022/08/23 05:03:30;;;;;;;4.45;3.33;;;20.10;93.50;;;;;;5046284;28;20083;-36
2022/08/23 05:05:57;;;;;;;5.53;3.30;;;20.10;93.70;;;;;;5045939;28;20516;-36
2022/08/23 05:08:24;;;;;;;5.25;3.50;;;20.10;93.80;;;;;;5025612;28;20040;-35
2022/08/23 05:10:50;;;;;;;6.10;3.63;;;20.10;93.90;;;;;;5039670;28;20032;-37
2022/08/23 05:13:15;;;;;;;5.68;4.20;;;20.10;94.00;;;;;;5045884;28;20120;-34
2022/08/23 05:15:42;;;;;;;5.70;4.30;;;20.10;94.10;;;;;;5044344;28;20028;-36
2022/08/23 05:18:08;;;;;;;6.55;4.13;;;20.10;94.20;;;;;;5045404;28;20464;-37
2022/08/23 05:20:34;;;;;;;6.60;4.57;;;20.10;94.30;;;;;;5045439;28;20029;-36
2022/08/23 05:23:00;;;;;;;7.70;4.72;;;20.10;94.40;;;;;;5044727;28;20504;-36
2022/08/23 05:25:48;;;;;;;4.57;4.07;;;20.20;94.50;;;;;;5045032;28;20032;-37
2022/08/23 05:28:12;;;;;;;6.57;4.18;;;20.20;94.50;;;;;;5045407;28;20033;-35
2022/08/23 05:30:37;;;;;;;6.20;4.45;;;20.20;94.50;;;;;;5044731;28;20483;-35
2022/08/23 05:33:04;;;;;;;6.10;4.55;;;20.30;94.60;;;;;;5045413;28;20117;-35
2022/08/23 05:35:30;;;;;;;6.65;4.45;;;20.40;94.60;;;;;;5045445;28;20471;-34
2022/08/23 05:37:58;;;;;;;8.25;4.75;;;20.40;94.60;;;;;;5044459;28;20029;-35
2022/08/23 05:40:25;;;;;;;7.93;4.70;;;20.50;94.60;;;;;;5044178;28;20131;-36
2022/08/23 05:42:50;;;;;;;5.97;4.35;;;20.50;94.60;;;;;;5045860;28;20021;-36
2022/08/23 05:45:16;;;;;;;6.03;4.35;;;20.60;94.60;;;;;;5044938;28;20546;-34
2022/08/23 05:47:41;;;;;;;6.75;4.43;;;20.60;94.60;;;;;;5044693;28;20528;-34
2022/08/23 05:50:07;;;;;;;4.75;4.00;;;20.70;94.60;;;;;;5044601;28;20036;-36
2022/08/23 05:52:33;;;;;;;4.78;4.00;;;20.80;94.50;;;;;;5044690;28;20017;-37
2022/08/23 05:54:58;;;;;;;5.30;4.30;;;20.80;94.50;;;;;;5045505;28;20067;-35
2022/08/23 05:57:24;;;;;;;5.78;4.32;;;20.90;94.40;;;;;;5044649;28;21017;-37
2022/08/23 05:59:50;;;;;;;4.85;3.92;;;21.00;94.40;;;;;;5045235;28;20102;-37
2022/08/23 06:02:15;;;;;;;4.68;4.05;;;21.10;94.30;;;;;;5044324;28;20099;-36
2022/08/23 06:04:41;;;;;;;3.47;3.17;;;21.10;94.20;;;;;;5041859;28;20454;-35
2022/08/23 06:07:08;;;;;;;4.25;3.80;;;21.20;94.20;;;;;;5043508;28;20094;-36
2022/08/23 06:09:34;;;;;;;5.65;3.72;;;21.20;94.20;;;;;;5043906;28;20107;-37
2022/08/23 06:12:00;;;;;;;8.18;4.07;;;21.30;94.10;;;;;;5043403;28;20766;-37
2022/08/23 06:14:26;;;;;;;5.15;4.30;;;21.40;94.10;;;;;;5044120;28;20032;-39
2022/08/23 06:16:52;;;;;;;5.07;4.40;;;21.40;94.00;;;;;;5041275;28;20017;-36
2022/08/23 06:19:17;;;;;;;5.47;4.20;;;21.50;93.90;;;;;;5041391;28;20067;-36
2022/08/23 06:21:43;;;;;;;4.22;3.38;;;21.60;93.90;;;;;;5043247;28;20021;-37
2022/08/23 06:24:11;;;;;;;6.43;4.38;;;21.70;93.80;;;;;;5040059;28;20048;-34
2022/08/23 06:26:39;;;;;;;5.75;4.28;;;21.70;93.70;;;;;;5042563;28;20091;-37
2022/08/23 06:29:08;;;;;;;4.97;4.15;;;21.80;93.70;;;;;;5043307;28;20025;-35
2022/08/23 06:31:44;;;;;;;4.90;3.47;;;21.80;93.60;;;;;;5043558;28;20056;-36
2022/08/23 06:34:18;;;;;;;4.20;3.80;;;21.90;93.60;;;;;;5043430;28;20025;-35
2022/08/23 06:36:45;;;;;;;4.38;3.60;;;21.90;93.60;;;;;;5043179;28;20024;-34
2022/08/23 06:39:12;;;;;;;5.13;3.78;;;22.00;93.60;;;;;;5043927;28;20041;-36
2022/08/23 06:41:38;;;;;;;7.30;3.97;;;22.10;93.60;;;;;;5042714;28;20025;-36
2022/08/23 06:44:05;;;;;;;4.63;3.58;;;22.10;93.60;;;;;;5044240;28;20051;-35
2022/08/23 06:46:31;;;;;;;4.82;3.72;;;22.10;93.60;;;;;;5043039;28;20099;-36
2022/08/23 06:48:59;;;;;;;4.03;3.30;;;22.20;93.60;;;;;;5043331;28;20036;-36
2022/08/23 06:51:28;;;;;;;4.28;3.30;;;22.20;93.50;;;;;;5044159;28;20174;-37
2022/08/23 06:53:55;;;;;;;5.20;3.38;;;22.20;93.50;;;;;;5042883;28;20114;-34
2022/08/23 06:56:23;;;;;;;5.07;3.40;;;22.30;93.50;;;;;;5044102;28;20032;-36
2022/08/23 06:58:49;;;;;;;4.03;3.63;;;22.40;93.50;;;;;;5043646;28;20391;-35
2022/08/23 07:01:36;;;;;;;5.15;3.20;;;22.40;93.40;;;;;;5043584;28;20056;-36
2022/08/23 07:04:05;;;;;;;3.58;3.08;;;22.50;93.30;;;;;;5044322;28;20021;-37
2022/08/23 07:06:31;;;;;;;3.75;3.28;;;22.60;93.20;;;;;;5043725;28;20107;-36
2022/08/23 07:08:57;;;;;;;5.53;3.40;;;22.70;93.20;;;;;;5042581;28;20464;-36
2022/08/23 07:11:24;;;;;;;4.18;3.58;;;22.80;93.10;;;;;;5044171;28;20361;-35
2022/08/23 07:13:51;;;;;;;4.07;3.28;;;22.90;93.10;;;;;;5043454;28;20547;-34
2022/08/23 07:16:18;;;;;;;4.68;3.33;;;22.90;93.00;;;;;;5042996;28;20129;-37
2022/08/23 07:18:45;;;;;;;3.63;3.28;;;22.90;93.00;;;;;;5043193;28;20375;-36
2022/08/23 07:21:11;;;;;;;5.03;3.10;;;23.00;93.00;;;;;;5043802;28;20379;-37
2022/08/23 07:23:38;;;;;;;5.35;3.72;;;22.90;93.00;;;;;;5043170;28;20063;-37
2022/08/23 07:26:09;;;;;;;3.55;2.88;;;22.90;93.00;;;;;;5044150;28;20460;-37
2022/08/23 07:28:37;;;;;;;5.13;3.20;;;22.90;93.00;;;;;;5042517;28;20033;-39
2022/08/23 07:31:19;;;;;;;4.13;3.13;;;22.90;93.00;;;;;;5043126;28;20385;-36
2022/08/23 07:33:46;;;;;;;3.40;2.85;;;22.90;93.00;;;;;;5041702;28;20064;-37
2022/08/23 07:36:15;;;;;;;4.65;3.33;;;22.90;92.90;;;;;;5043205;28;20386;-37
2022/08/23 07:38:41;;;;;;;5.70;3.50;;;22.90;92.90;;;;;;5043579;28;20033;-36
2022/08/23 07:41:07;;;;;;;5.05;3.60;;;22.90;92.90;;;;;;5042911;28;20025;-36
2022/08/23 07:43:33;;;;;;;3.90;3.50;;;22.90;92.90;;;;;;5042385;28;20210;-37
2022/08/23 07:45:59;;;;;;;4.30;3.88;;;22.90;92.90;;;;;;5043524;28;20112;-34
2022/08/23 07:48:25;;;;;;;3.95;3.50;;;22.90;92.90;;;;;;5043064;28;20158;-37
2022/08/23 07:51:00;;;;;;;4.57;3.38;;;22.90;92.90;;;;;;5042549;28;20136;-36
2022/08/23 07:53:26;;;;;;;6.20;4.25;;;22.90;92.90;;;;;;5043444;28;20025;-39
2022/08/23 07:55:53;;;;;;;5.55;3.65;;;22.90;92.90;;;;;;5043351;28;20116;-37
2022/08/23 07:58:20;;;;;;;4.68;3.70;;;22.90;92.80;;;;;;5042692;28;20389;-36
2022/08/23 08:00:46;;;;;;;9.18;4.70;;;23.00;92.80;;;;;;5043175;28;20030;-36
2022/08/23 08:03:13;;;;;;;5.30;3.70;;;23.00;92.80;;;;;;5043664;28;20037;-36
2022/08/23 08:05:39;;;;;;;7.00;4.25;;;23.10;92.90;;;;;;5045385;28;20040;-36
2022/08/23 08:08:06;;;;;;;4.20;3.53;;;23.10;92.80;;;;;;5047645;28;20036;-37
2022/08/23 08:10:34;;;;;;;6.88;4.05;;;23.20;92.80;;;;;;5046884;28;20539;-34
2022/08/23 08:12:59;;;;;;;4.15;3.70;;;23.20;92.70;;;;;;5046090;28;20032;-36
2022/08/23 08:15:25;;;;;;;4.85;3.60;;;23.20;92.60;;;;;;5047419;28;20025;-43
2022/08/23 08:17:51;;;;;;;4.47;3.47;;;23.20;92.60;;;;;;5046051;28;20043;-36
2022/08/23 08:20:18;;;;;;;6.53;3.58;;;23.40;92.60;;;;;;5047959;28;20032;-35
2022/08/23 08:22:44;;;;;;;5.72;3.92;;;23.40;92.50;;;;;;5046151;28;20048;-36
2022/08/23 08:25:11;;;;;;;6.68;3.55;;;23.40;92.40;;;;;;5046799;28;20349;-36
2022/08/23 08:27:36;;;;;;;5.72;3.60;;;23.40;92.30;;;;;;5046245;28;20036;-35
2022/08/23 08:30:07;;;;;;;5.00;3.47;;;23.50;92.30;;;;;;5046386;28;20021;-35
2022/08/23 08:32:34;;;;;;;4.28;2.97;;;23.60;92.20;;;;;;5045681;28;20433;-35
2022/08/23 08:35:01;;;;;;;4.05;3.08;;;23.60;92.10;;;;;;5046748;28;20029;-35
2022/08/23 08:37:27;;;;;;;5.38;4.53;;;23.60;92.00;;;;;;5045842;28;20052;-34
2022/08/23 08:39:53;;;;;;;5.68;3.08;;;23.70;91.90;;;;;;5044305;28;20503;-36
2022/08/23 08:42:31;;;;;;;4.53;3.28;;;23.70;91.80;;;;;;5046070;28;20118;-37
2022/08/23 08:45:05;;;;;;;4.78;3.10;;;23.80;91.70;;;;;;5046315;28;20032;-36
2022/08/23 08:47:43;;;;;;;3.65;2.60;;;23.80;91.60;;;;;;5045671;28;20021;-35
2022/08/23 08:50:18;;;;;;;4.72;3.30;;;23.80;91.50;;;;;;5046988;28;20615;-35
2022/08/23 08:52:51;;;;;;;5.22;3.40;;;23.90;91.50;;;;;;5045910;28;20068;-35
2022/08/23 08:55:29;;;;;;;4.07;2.75;;;23.90;91.50;;;;;;5045697;28;20373;-35
2022/08/23 08:57:55;;;;;;;4.45;3.20;;;24.00;91.40;;;;;;5046535;28;20831;-37
2022/08/23 09:00:36;;;;;;;4.60;3.15;;;24.00;91.30;;;;;;5046001;28;20384;-34
2022/08/23 09:03:08;;;;;;;5.53;3.00;;;24.10;91.20;;;;;;5046005;28;20457;-35
2022/08/23 09:05:38;;;;;;;4.28;2.75;;;24.20;91.10;;;;;;5046147;28;20095;-36
2022/08/23 09:08:25;;;;;;;6.88;4.43;;;24.30;91.00;;;;;;5045347;28;20086;-37
2022/08/23 09:11:02;;;;;;;4.82;3.30;;;24.30;90.70;;;;;;5046091;28;20029;-36
2022/08/23 09:14:11;;;;;;;5.15;2.92;;;24.30;90.60;;;;;;5045725;28;20033;-38
2022/08/23 09:16:46;;;;;;;3.58;2.53;;;24.40;90.50;;;;;;5045933;28;20032;-36
2022/08/23 09:19:12;;;;;;;3.17;2.60;;;24.50;90.50;;;;;;5045601;28;20072;-34
2022/08/23 09:21:52;;;;;;;3.50;2.40;;;24.50;90.40;;;;;;5045741;28;20059;-36
2022/08/23 09:24:18;;;;;;;3.00;2.15;;;24.60;90.30;;;;;;5045757;28;20139;-36
2022/08/23 09:26:44;;;;;;;3.03;2.30;;;24.70;90.20;;;;;;5044993;28;20453;-35
2022/08/23 09:29:23;;;;;;;3.88;2.63;;;24.70;90.10;;;;;;5045054;28;20480;-35
2022/08/23 09:32:31;;;;;;;4.00;2.50;;;24.80;89.80;;;;;;5045079;28;20099;-36
2022/08/23 09:35:19;;;;;;;3.13;2.28;;;24.90;89.30;;;;;;5045012;28;20456;-37
2022/08/23 09:38:14;;;;;;;3.17;2.05;;;25.00;89.10;;;;;;5024709;28;20065;-36
2022/08/23 09:40:49;;;;;;;3.65;2.30;;;25.00;88.80;;;;;;5044793;28;20051;-36
2022/08/23 09:43:22;;;;;;;3.60;2.47;;;25.10;88.60;;;;;;5044331;28;20017;-35
2022/08/23 09:45:47;;;;;;;3.45;2.30;;;25.10;88.40;;;;;;5043948;28;20032;-36
2022/08/23 09:48:30;;;;;;;3.45;2.40;;;25.20;88.30;;;;;;5045441;28;20102;-36
2022/08/23 09:51:04;;;;;;;3.75;2.30;;;25.20;87.90;;;;;;5043665;28;20445;-36
2022/08/23 09:53:30;;;;;;;4.10;2.05;;;25.20;87.50;;;;;;5044797;28;20036;-36
2022/08/23 09:56:10;;;;;;;2.00;1.70;;;25.40;87.30;;;;;;5044338;28;20041;-36
2022/08/23 09:58:39;;;;;;;3.40;1.90;;;25.40;87.60;;;;;;5044150;28;20099;-37
2022/08/23 10:01:17;;;;;;;2.10;1.42;;;25.50;86.60;;;;;;5044799;28;20021;-36
2022/08/23 10:03:43;;;;;;;4.55;1.60;;;25.60;86.30;;;;;;5044548;28;20600;-36
2022/08/23 10:06:14;;;;;;;4.82;1.75;;;25.70;86.10;;;;;;5044820;28;20528;-36
2022/08/23 10:08:52;;;;;;;3.00;1.77;;;25.70;85.70;;;;;;5044561;28;20051;-37
2022/08/23 10:11:20;;;;;;;4.43;1.95;;;25.80;85.40;;;;;;5044881;28;20104;-36
2022/08/23 10:13:45;;;;;;;2.55;1.85;;;25.90;85.10;;;;;;5044045;28;20218;-37
2022/08/23 10:16:34;;;;;;;3.70;1.85;;;26.00;84.90;;;;;;5044363;28;20021;-36
2022/08/23 10:19:28;;;;;;;3.95;2.15;;;26.10;84.50;;;;;;5024112;28;20041;-37
2022/08/23 10:22:08;;;;;;;4.15;1.92;;;26.30;83.90;;;;;;5043767;28;20025;-37
2022/08/23 10:25:02;;;;;;;3.50;2.15;;;26.40;83.50;;;;;;5043462;28;20578;-34
2022/08/23 10:30:59;;;;;;;4.70;2.22;;;26.60;83.60;;;;;;5044372;28;20039;-35
2022/08/23 10:33:41;;;;;;;4.47;2.10;;;26.70;81.90;;;;;;5043481;28;20492;-41
2022/08/23 10:36:48;;;;;;;3.55;2.03;;;26.70;81.60;;;;;;5043636;28;20025;-35
2022/08/23 10:39:28;;;;;;;2.38;1.83;;;26.70;81.40;;;;;;5043612;28;20463;-36
2022/08/23 10:42:18;;;;;;;4.93;2.20;;;26.70;81.40;;;;;;5044037;28;20033;-37
2022/08/23 10:45:07;;;;;;;3.05;1.92;;;26.70;80.90;;;;;;5023189;28;20441;-35
2022/08/23 10:47:57;;;;;;;3.20;1.80;;;26.80;80.30;;;;;;5040021;28;20041;-36
2022/08/23 10:50:25;;;;;;;3.00;2.00;;;26.80;80.00;;;;;;5044051;28;20025;-36
2022/08/23 10:52:56;;;;;;;3.90;2.00;;;26.90;80.10;;;;;;5043309;28;20428;-35
2022/08/23 10:55:42;;;;;;;2.67;1.50;;;26.90;79.90;;;;;;5044086;28;20029;-35
2022/08/23 10:58:14;;;;;;;2.63;1.30;;;27.00;80.10;;;;;;5043773;28;20017;-37
2022/08/23 11:00:40;;;;;;;3.33;2.00;;;27.00;79.20;;;;;;5043220;28;20043;-35
2022/08/23 11:03:28;;;;;;;2.65;1.63;;;27.10;79.00;;;;;;5044106;28;20124;-37
2022/08/23 11:06:23;;;;;;;3.83;1.80;;;27.20;79.40;;;;;;5043913;28;20060;-36
2022/08/23 11:08:58;;;;;;;2.28;1.63;;;27.30;77.80;;;;;;5040325;28;20036;-37
2022/08/23 11:11:44;;;;;;;2.63;1.60;;;27.30;77.80;;;;;;5043744;28;20029;-35
2022/08/23 11:14:30;;;;;;;3.92;1.60;;;27.30;77.00;;;;;;5043013;28;20342;-35
2022/08/23 11:17:00;;;;;;;3.35;1.70;;;27.40;77.30;;;;;;5043462;28;20025;-38
2022/08/23 11:19:44;;;;;;;1.38;1.15;;;27.40;76.60;;;;;;5043438;28;20045;-36
2022/08/23 11:22:33;;;;;;;2.88;1.80;;;27.50;76.50;;;;;;5043259;28;20024;-36
2022/08/23 11:25:15;;;;;;;3.10;1.90;;;27.70;76.20;;;;;;5035870;28;20021;-36
2022/08/23 11:27:42;;;;;;;3.28;1.50;;;27.80;76.20;;;;;;5042464;28;20117;-36
2022/08/23 11:30:30;;;;;;;1.75;1.58;;;27.70;76.20;;;;;;5043705;28;20021;-37
2022/08/23 11:33:15;;;;;;;2.35;1.30;;;27.70;76.00;;;;;;5043370;28;20029;-37
2022/08/23 11:36:12;;;;;;;2.95;1.80;;;27.70;76.20;;;;;;5042993;28;20032;-36
2022/08/23 11:38:46;;;;;;;1.80;1.35;;;27.80;76.20;;;;;;5044936;28;20485;-37
2022/08/23 11:41:25;;;;;;;2.88;1.65;;;27.80;76.20;;;;;;5047826;28;20067;-38
2022/08/23 11:43:54;;;;;;;3.80;1.67;;;27.80;76.00;;;;;;5047126;28;20040;-35
2022/08/23 11:46:26;;;;;;;2.88;1.60;;;27.80;75.80;;;;;;5046967;28;20056;-37
2022/08/23 11:49:14;;;;;;;4.65;1.50;;;27.90;75.70;;;;;;5046466;28;20029;-36
2022/08/23 11:52:19;;;;;;;4.10;2.20;;;28.00;75.30;;;;;;5036717;28;20510;-36
2022/08/23 11:55:18;;;;;;;3.80;2.00;;;28.10;74.70;;;;;;5034447;28;20040;-36
2022/08/23 11:58:19;;;;;;;2.15;1.45;;;28.20;74.50;;;;;;5045784;28;20504;-35
2022/08/23 12:01:07;;;;;;;3.10;1.93;;;28.40;74.10;;;;;;5045933;28;20032;-37
2022/08/23 12:04:08;;;;;;;2.65;1.73;;;28.40;74.40;;;;;;5046334;28;20020;-34
2022/08/23 12:06:44;;;;;;;4.10;2.20;;;28.40;74.50;;;;;;5040331;28;20455;-37
2022/08/23 12:09:11;;;;;;;3.50;1.58;;;28.40;74.80;;;;;;5047893;28;20036;-37
2022/08/23 12:11:55;;;;;;;4.00;1.83;;;28.40;74.80;;;;;;5046419;28;20155;-36
2022/08/23 12:14:29;;;;;;;3.30;2.10;;;28.50;74.70;;;;;;5046959;28;20024;-35
2022/08/23 12:16:58;;;;;;;3.88;2.15;;;28.50;74.60;;;;;;5045997;28;20025;-37
2022/08/23 12:19:50;;;;;;;3.25;2.00;;;28.50;74.30;;;;;;5046397;28;20170;-37
2022/08/23 12:22:21;;;;;;;2.85;1.90;;;28.60;74.50;;;;;;5046993;28;20029;-36
2022/08/23 12:24:55;;;;;;;3.78;2.10;;;28.60;74.70;;;;;;5045648;28;20378;-35
2022/08/23 12:27:31;;;;;;;3.22;2.00;;;28.60;74.70;;;;;;5047064;28;20068;-36
2022/08/23 12:30:06;;;;;;;4.60;1.67;;;28.60;74.70;;;;;;5046384;28;20056;-37
2022/08/23 12:32:54;;;;;;;3.78;1.88;;;28.60;74.40;;;;;;5046059;28;20033;-36
2022/08/23 12:35:42;;;;;;;3.85;1.63;;;28.70;74.30;;;;;;5046299;28;20029;-37
2022/08/23 12:38:30;;;;;;;2.10;1.67;;;28.80;74.10;;;;;;5045203;28;20392;-36
2022/08/23 12:40:56;;;;;;;1.90;1.50;;;28.90;74.00;;;;;;5046363;28;20139;-37
2022/08/23 12:43:28;;;;;;;2.30;1.52;;;29.10;74.10;;;;;;5046669;28;20020;-36
2022/08/23 12:45:57;;;;;;;2.90;1.85;;;29.10;73.70;;;;;;5045688;28;20029;-36
2022/08/23 12:48:27;;;;;;;5.50;3.47;;;29.20;73.30;;;;;;5046046;28;20409;-35
2022/08/23 12:51:00;;;;;;;6.53;2.33;;;29.30;72.80;;;;;;5046097;28;20503;-36
2022/08/23 12:53:33;;;;;;;2.47;1.80;;;29.30;72.40;;;;;;5045524;28;20064;-37
2022/08/23 12:56:05;;;;;;;3.83;1.80;;;29.30;72.50;;;;;;5046150;28;20124;-35
2022/08/23 12:58:32;;;;;;;;;;;29.40;72.10;;;;;;5045682;28;20373;-35
2022/08/23 13:01:02;;;;;;;2.88;1.63;;;29.40;72.20;;;;;;5045247;28;19909;-36
2022/08/23 13:03:35;;;;;;;1.50;1.30;;;29.40;72.20;;;;;;5046263;28;20029;-36
2022/08/23 13:06:11;;;;;;;1.60;1.38;;;29.30;72.30;;;;;;5045350;28;20045;-36
2022/08/23 13:08:51;;;;;;;3.00;2.10;;;29.30;72.40;;;;;;5045732;28;20472;-35
2022/08/23 13:11:22;;;;;;;3.55;1.48;;;29.20;72.00;;;;;;5046254;28;20108;-35
2022/08/23 13:13:48;;;;;;;2.95;1.30;;;29.20;71.80;;;;;;5044572;28;20086;-36
2022/08/23 13:16:43;;;;;;;2.75;1.50;;;29.20;71.90;;;;;;5045570;28;20025;-36
2022/08/23 13:19:21;;;;;;;1.95;1.20;;;29.20;72.10;;;;;;5041028;28;20056;-37
2022/08/23 13:21:47;;;;;;;1.98;1.60;;;29.20;72.30;;;;;;5044650;28;20021;-36